createdAt,value
2019-04-04T00:01:48.062Z,3.70
2019-04-04T00:04:22.228Z,3.20
2019-04-04T00:06:57.625Z,3.52
2019-04-04T00:09:27.711Z,3.53
2019-04-04T00:11:59.376Z,3.13
2019-04-04T00:14:30.870Z,3.30
2019-04-04T00:17:02.523Z,3.20
2019-04-04T00:19:33.925Z,3.23
2019-04-04T00:22:05.572Z,3.47
2019-04-04T00:24:39.352Z,3.70
2019-04-04T00:27:11.166Z,3.27
2019-04-04T00:29:43.104Z,3.70
2019-04-04T00:32:14.718Z,3.10
2019-04-04T00:34:46.374Z,3.25
2019-04-04T00:37:17.842Z,3.60
2019-04-04T00:39:49.109Z,3.40
2019-04-04T00:42:20.383Z,3.23
2019-04-04T00:44:52.031Z,3.00
2019-04-04T00:47:23.706Z,2.70
2019-04-04T00:49:55.015Z,3.60
2019-04-04T00:52:26.581Z,3.85
2019-04-04T00:54:58.268Z,3.60
2019-04-04T00:57:29.575Z,3.43
2019-04-04T01:00:00.880Z,3.33
2019-04-04T01:02:32.829Z,3.87
2019-04-04T01:05:04.188Z,2.97
2019-04-04T01:07:35.902Z,3.80
2019-04-04T01:10:09.239Z,3.27
2019-04-04T01:12:41.623Z,3.33
2019-04-04T01:15:13.148Z,3.50
2019-04-04T01:17:47.106Z,3.65
2019-04-04T01:20:20.347Z,3.63
2019-04-04T01:22:51.828Z,3.30
2019-04-04T01:25:23.839Z,3.40
2019-04-04T01:27:55.886Z,3.77
2019-04-04T01:30:27.304Z,3.90
2019-04-04T01:32:58.587Z,4.08
2019-04-04T01:35:29.852Z,3.33
2019-04-04T01:38:01.167Z,3.40
2019-04-04T01:40:34.656Z,3.53
2019-04-04T01:43:08.823Z,3.27
2019-04-04T01:45:39.507Z,3.58
2019-04-04T01:48:11.177Z,2.98
2019-04-04T01:50:42.848Z,3.50
2019-04-04T01:53:14.806Z,3.05
2019-04-04T01:55:46.843Z,3.63
2019-04-04T01:58:18.172Z,3.53
2019-04-04T02:00:49.492Z,3.77
2019-04-04T02:03:22.664Z,3.57
2019-04-04T02:05:56.223Z,3.60
2019-04-04T02:08:31.696Z,3.53
2019-04-04T02:11:05.482Z,3.60
2019-04-04T02:13:38.879Z,3.58
2019-04-04T02:16:10.561Z,4.17
2019-04-04T02:18:42.311Z,4.27
2019-04-04T02:21:13.624Z,4.10
2019-04-04T02:23:44.978Z,4.33
2019-04-04T02:26:16.671Z,4.30
2019-04-04T02:28:48.352Z,4.53
2019-04-04T02:31:21.038Z,4.67
2019-04-04T02:33:54.302Z,4.92
2019-04-04T02:36:25.550Z,5.23
2019-04-04T02:39:10.579Z,6.03
2019-04-04T02:41:42.046Z,6.33
2019-04-04T02:44:13.801Z,6.03
2019-04-04T02:46:45.834Z,7.00
2019-04-04T02:49:17.252Z,7.17
2019-04-04T02:51:48.497Z,6.80
2019-04-04T02:54:24.228Z,7.80
2019-04-04T02:56:53.092Z,6.93
2019-04-04T02:59:24.483Z,8.70
2019-04-04T03:01:56.413Z,8.70
2019-04-04T03:04:28.139Z,8.33
2019-04-04T03:06:59.764Z,8.03
2019-04-04T03:09:31.100Z,7.73
2019-04-04T03:12:02.391Z,7.40
2019-04-04T03:14:37.404Z,6.95
2019-04-04T03:17:08.532Z,7.77
2019-04-04T03:19:40.755Z,7.73
2019-04-04T03:22:12.739Z,7.17
2019-04-04T03:24:45.128Z,7.83
2019-04-04T03:27:16.782Z,7.77
2019-04-04T03:29:48.417Z,8.83
2019-04-04T03:32:19.695Z,8.37
2019-04-04T03:34:54.451Z,8.63
2019-04-04T03:37:25.739Z,9.13
2019-04-04T03:39:57.043Z,9.53
2019-04-04T03:42:28.471Z,10.13
2019-04-04T03:45:00.401Z,9.23
2019-04-04T03:47:32.157Z,9.10
2019-04-04T03:50:03.452Z,9.03
2019-04-04T03:52:34.721Z,9.97
2019-04-04T03:55:07.140Z,8.33
2019-04-04T03:57:38.749Z,8.90
2019-04-04T04:00:13.932Z,9.27
2019-04-04T04:02:45.256Z,9.28
2019-04-04T04:05:30.938Z,9.03
2019-04-04T04:08:01.133Z,9.27
2019-04-04T04:10:33.824Z,10.13
2019-04-04T04:13:05.587Z,9.57
2019-04-04T04:15:36.864Z,9.28
2019-04-04T04:18:08.496Z,10.37
2019-04-04T04:20:39.793Z,8.80
2019-04-04T04:23:11.077Z,10.37
2019-04-04T04:25:45.005Z,10.37
2019-04-04T04:28:19.809Z,11.03
2019-04-04T04:30:49.321Z,11.20
2019-04-04T04:33:20.658Z,10.30
2019-04-04T04:35:52.622Z,11.70
2019-04-04T04:38:26.878Z,13.10
2019-04-04T04:40:57.293Z,11.00
2019-04-04T04:43:32.393Z,12.23
2019-04-04T04:46:01.543Z,14.10
2019-04-04T04:48:34.195Z,12.40
2019-04-04T04:51:05.617Z,12.50
2019-04-04T04:53:37.065Z,14.17
2019-04-04T04:56:08.514Z,13.97
2019-04-04T04:58:42.128Z,14.20
2019-04-04T05:01:13.225Z,13.43
2019-04-04T05:03:44.574Z,13.60
2019-04-04T05:06:15.925Z,13.73
2019-04-04T05:08:48.284Z,14.10
2019-04-04T05:11:20.212Z,13.03
2019-04-04T05:13:52.520Z,14.33
2019-04-04T05:16:23.875Z,12.82
2019-04-04T05:18:55.896Z,13.00
2019-04-04T05:21:28.835Z,13.23
2019-04-04T05:24:00.294Z,13.37
2019-04-04T05:26:32.265Z,13.50
2019-04-04T05:29:05.099Z,11.90
2019-04-04T05:31:36.366Z,13.13
2019-04-04T05:34:07.723Z,12.50
2019-04-04T05:36:39.098Z,12.00
2019-04-04T05:39:11.031Z,10.65
2019-04-04T05:41:42.752Z,10.63
2019-04-04T05:44:14.424Z,10.13
2019-04-04T05:46:45.747Z,11.07
2019-04-04T05:49:17.089Z,10.10
2019-04-04T05:51:49.050Z,8.87
2019-04-04T05:54:20.447Z,9.73
2019-04-04T05:56:51.762Z,9.57
2019-04-04T05:59:23.922Z,9.10
2019-04-04T06:01:56.530Z,10.15
2019-04-04T06:04:27.833Z,9.90
2019-04-04T06:06:59.138Z,10.33
2019-04-04T06:09:31.161Z,10.40
2019-04-04T06:12:02.443Z,10.20
2019-04-04T06:14:33.611Z,10.07
2019-04-04T06:17:07.170Z,9.70
2019-04-04T06:19:38.579Z,9.47
2019-04-04T06:22:10.606Z,9.17
2019-04-04T06:24:42.613Z,9.70
2019-04-04T06:27:13.923Z,9.13
2019-04-04T06:29:47.603Z,9.43
2019-04-04T06:32:18.450Z,8.83
2019-04-04T06:34:50.109Z,8.90
2019-04-04T06:37:21.413Z,8.60
2019-04-04T06:39:54.358Z,9.00
2019-04-04T06:42:25.687Z,9.07
2019-04-04T06:44:57.537Z,9.53
2019-04-04T06:47:32.268Z,9.23
2019-04-04T06:50:02.900Z,9.30
2019-04-04T06:52:34.536Z,9.95
2019-04-04T06:55:06.044Z,9.37
2019-04-04T06:57:37.782Z,9.30
2019-04-04T07:00:11.073Z,8.60
2019-04-04T07:02:42.338Z,9.50
2019-04-04T07:05:14.281Z,9.33
2019-04-04T07:07:46.723Z,9.17
2019-04-04T07:10:21.032Z,9.03
2019-04-04T07:12:51.308Z,9.73
2019-04-04T07:15:23.062Z,9.03
2019-04-04T07:17:55.184Z,9.03
2019-04-04T07:20:28.367Z,8.73
2019-04-04T07:22:59.446Z,8.63
2019-04-04T07:25:31.476Z,9.08
2019-04-04T07:28:03.060Z,9.47
2019-04-04T07:30:34.643Z,8.10
2019-04-04T07:33:06.297Z,8.70
2019-04-04T07:35:38.458Z,8.40
2019-04-04T07:38:10.249Z,9.10
2019-04-04T07:40:41.570Z,8.07
2019-04-04T07:43:12.910Z,8.37
2019-04-04T07:45:44.179Z,8.10
2019-04-04T07:48:17.843Z,9.97
2019-04-04T07:50:51.238Z,8.30
2019-04-04T07:53:21.324Z,7.67
2019-04-04T07:55:52.576Z,8.20
2019-04-04T07:58:23.953Z,8.33
2019-04-04T08:00:55.993Z,7.90
2019-04-04T08:03:27.653Z,7.63
2019-04-04T08:05:58.953Z,7.47
2019-04-04T08:08:30.227Z,7.80
2019-04-04T08:11:01.478Z,7.70
2019-04-04T08:13:32.858Z,7.60
2019-04-04T08:16:04.695Z,7.00
2019-04-04T08:18:36.010Z,7.47
2019-04-04T08:21:07.704Z,7.43
2019-04-04T08:23:39.129Z,7.27
2019-04-04T08:26:10.385Z,7.20
2019-04-04T08:28:42.054Z,7.33
2019-04-04T08:31:13.344Z,6.83
2019-04-04T08:33:44.688Z,7.47
2019-04-04T08:36:16.002Z,7.10
2019-04-04T08:38:47.313Z,6.73
2019-04-04T08:41:19.514Z,6.83
2019-04-04T08:43:50.739Z,7.30
2019-04-04T08:46:22.716Z,7.57
2019-04-04T08:48:53.980Z,6.67
2019-04-04T08:51:25.318Z,7.07
2019-04-04T08:53:56.675Z,7.63
2019-04-04T08:56:28.401Z,6.50
2019-04-04T08:59:00.112Z,7.30
2019-04-04T09:01:32.143Z,7.60
2019-04-04T09:04:03.765Z,8.07
2019-04-04T09:06:35.862Z,8.07
2019-04-04T09:09:09.585Z,7.37
2019-04-04T09:11:40.848Z,7.57
2019-04-04T09:14:12.483Z,8.27
2019-04-04T09:16:44.110Z,8.70
2019-04-04T09:19:15.371Z,7.80
2019-04-04T09:21:46.745Z,8.30
2019-04-04T09:24:18.056Z,8.30
2019-04-04T09:26:49.710Z,8.60
2019-04-04T09:29:22.077Z,7.65
2019-04-04T09:31:53.360Z,8.07
2019-04-04T09:34:25.514Z,8.47
2019-04-04T09:36:57.177Z,8.30
2019-04-04T09:39:28.706Z,8.93
2019-04-04T09:42:01.202Z,8.03
2019-04-04T09:44:33.086Z,9.03
2019-04-04T09:47:05.726Z,9.33
2019-04-04T09:49:37.572Z,8.53
2019-04-04T09:52:09.231Z,9.10
2019-04-04T09:54:40.735Z,9.43
2019-04-04T09:57:11.968Z,9.33
2019-04-04T09:59:44.502Z,8.85
2019-04-04T10:02:16.265Z,9.37
2019-04-04T10:04:47.923Z,9.67
2019-04-04T10:07:19.217Z,10.13
2019-04-04T10:09:50.781Z,9.83
2019-04-04T10:12:22.123Z,9.13
2019-04-04T10:14:53.824Z,9.37
2019-04-04T10:17:25.571Z,9.33
2019-04-04T10:19:57.020Z,9.40
2019-04-04T10:22:29.131Z,9.88
2019-04-04T10:25:00.372Z,11.33
2019-04-04T10:27:31.617Z,10.07
2019-04-04T10:30:02.912Z,11.27
2019-04-04T10:32:34.523Z,10.15
2019-04-04T10:35:06.547Z,10.65
2019-04-04T10:37:38.522Z,10.80
2019-04-04T10:40:10.334Z,11.37
2019-04-04T10:42:42.047Z,11.17
2019-04-04T10:45:13.505Z,11.12
2019-04-04T10:47:44.754Z,12.07
2019-04-04T10:50:16.334Z,11.43
2019-04-04T10:52:47.653Z,10.77
2019-04-04T10:55:19.428Z,11.80
2019-04-04T10:57:51.253Z,10.97
2019-04-04T11:00:23.824Z,11.70
2019-04-04T11:02:55.973Z,10.90
2019-04-04T11:05:27.303Z,11.83
2019-04-04T11:07:59.788Z,11.57
2019-04-04T11:10:31.299Z,11.43
2019-04-04T11:13:03.150Z,11.63
2019-04-04T11:15:35.010Z,11.70
2019-04-04T11:18:06.307Z,12.33
2019-04-04T11:20:38.417Z,12.20
2019-04-04T11:23:09.806Z,12.07
2019-04-04T11:25:41.376Z,11.73
2019-04-04T11:28:13.698Z,11.83
2019-04-04T11:30:44.997Z,11.93
2019-04-04T11:33:16.248Z,13.60
2019-04-04T11:35:47.799Z,13.40
2019-04-04T11:38:19.398Z,13.08
2019-04-04T11:40:50.685Z,13.30
2019-04-04T11:43:22.278Z,13.30
2019-04-04T11:45:56.126Z,14.10
2019-04-04T11:48:27.782Z,13.87
2019-04-04T11:50:59.602Z,13.90
2019-04-04T11:53:30.904Z,14.77
2019-04-04T11:56:02.237Z,14.77
2019-04-04T11:58:33.888Z,15.35
2019-04-04T12:01:07.724Z,14.60
2019-04-04T12:03:40.165Z,15.23
2019-04-04T12:06:11.792Z,15.90
2019-04-04T12:08:43.110Z,15.53
2019-04-04T12:11:15.614Z,14.65
2019-04-04T12:13:50.424Z,15.13
2019-04-04T12:16:20.989Z,14.87
2019-04-04T12:18:53.014Z,15.80
2019-04-04T12:21:24.307Z,16.07
2019-04-04T12:23:55.626Z,16.07
2019-04-04T12:26:29.280Z,16.80
2019-04-04T12:29:01.708Z,17.43
2019-04-04T12:31:33.019Z,17.67
2019-04-04T12:34:05.028Z,17.87
2019-04-04T12:36:36.982Z,16.97
2019-04-04T12:39:10.559Z,18.30
2019-04-04T12:41:42.256Z,21.23
2019-04-04T12:44:13.547Z,19.97
2019-04-04T12:46:45.309Z,21.07
2019-04-04T12:49:16.624Z,21.40
2019-04-04T12:51:48.484Z,21.97
2019-04-04T12:54:19.830Z,22.17
2019-04-04T12:56:51.557Z,22.52
2019-04-04T12:59:25.136Z,25.67
2019-04-04T13:01:56.454Z,24.33
2019-04-04T13:04:31.985Z,24.17
2019-04-04T13:07:00.669Z,24.00
2019-04-04T13:09:32.695Z,25.43
2019-04-04T13:12:04.166Z,26.53
2019-04-04T13:14:35.523Z,25.43
2019-04-04T13:17:06.944Z,27.27
2019-04-04T13:19:39.621Z,26.30
2019-04-04T13:22:11.100Z,26.93
2019-04-04T13:24:42.440Z,26.90
2019-04-04T13:27:14.422Z,25.85
2019-04-04T13:29:45.673Z,27.30
2019-04-04T13:32:16.969Z,28.07
2019-04-04T13:34:58.565Z,29.50
2019-04-04T13:37:21.044Z,31.27
2019-04-04T13:39:52.688Z,32.23
2019-04-04T13:42:24.030Z,31.37
2019-04-04T13:44:55.708Z,29.00
2019-04-04T13:47:27.011Z,30.27
2019-04-04T13:49:58.368Z,29.80
2019-04-04T13:52:30.404Z,31.40
2019-04-04T13:55:01.715Z,31.67
2019-04-04T13:57:33.072Z,33.50
2019-04-04T14:00:06.122Z,34.63
2019-04-04T14:02:56.311Z,35.37
2019-04-04T14:05:40.268Z,32.00
2019-04-04T14:08:37.116Z,31.87
2019-04-04T14:11:42.191Z,32.83
2019-04-04T14:14:29.053Z,34.57
2019-04-04T14:17:21.308Z,33.30
2019-04-04T14:20:13.785Z,31.17
2019-04-04T14:23:10.361Z,31.47
2019-04-04T14:25:59.687Z,31.40
2019-04-04T14:28:51.079Z,33.43
2019-04-04T14:31:33.734Z,32.73
2019-04-04T14:34:37.923Z,35.13
2019-04-04T14:37:27.278Z,31.48
2019-04-04T14:40:01.880Z,30.92
2019-04-04T14:42:33.289Z,32.05
2019-04-04T14:45:25.866Z,31.27
2019-04-04T14:48:18.565Z,33.20
2019-04-04T14:51:11.192Z,31.60
2019-04-04T14:54:16.375Z,31.83
2019-04-04T14:57:16.983Z,31.33
2019-04-04T15:00:06.058Z,32.20
2019-04-04T15:03:13.774Z,30.82
2019-04-04T15:06:08.475Z,30.20
2019-04-04T15:09:22.402Z,29.43
2019-04-04T15:12:07.353Z,30.70
2019-04-04T15:14:58.496Z,30.67
2019-04-04T15:17:50.921Z,30.23
2019-04-04T15:20:47.312Z,30.87
2019-04-04T15:23:34.249Z,31.23
2019-04-04T15:26:25.077Z,30.53
2019-04-04T15:29:21.066Z,32.93
2019-04-04T15:32:04.478Z,32.15
2019-04-04T15:34:58.929Z,32.93
2019-04-04T15:37:42.853Z,32.77
2019-04-04T15:40:33.413Z,31.02
2019-04-04T15:43:48.367Z,31.33
2019-04-04T15:46:45.247Z,31.67
2019-04-04T15:49:48.954Z,31.95
2019-04-04T15:52:46.073Z,31.83
2019-04-04T15:55:50.132Z,31.43
2019-04-04T15:58:52.163Z,31.62
2019-04-04T16:01:42.240Z,32.58
2019-04-04T16:04:34.655Z,32.10
2019-04-04T16:07:44.601Z,32.47
2019-04-04T16:10:31.017Z,32.13
2019-04-04T16:13:31.035Z,33.93
2019-04-04T16:16:31.891Z,33.33
2019-04-04T16:19:33.104Z,31.03
2019-04-04T16:22:21.606Z,33.13
2019-04-04T16:25:12.625Z,33.90
2019-04-04T16:28:00.536Z,33.60
2019-04-04T16:31:01.203Z,33.57
2019-04-04T16:33:43.117Z,33.30
2019-04-04T16:37:04.463Z,33.77
2019-04-04T16:39:50.782Z,32.47
2019-04-04T16:42:20.562Z,34.13
2019-04-04T16:44:52.137Z,34.70
2019-04-04T16:47:23.452Z,34.90
2019-04-04T16:49:54.868Z,34.58
2019-04-04T16:52:26.534Z,33.73
2019-04-04T16:54:57.926Z,33.93
2019-04-04T16:57:29.658Z,34.92
2019-04-04T17:00:00.964Z,34.43
2019-04-04T17:02:32.295Z,34.50
2019-04-04T17:05:04.456Z,34.13
2019-04-04T17:07:35.867Z,35.20
2019-04-04T17:10:08.978Z,36.27
2019-04-04T17:12:40.323Z,33.93
2019-04-04T17:15:13.284Z,34.70
2019-04-04T17:17:44.701Z,33.37
2019-04-04T17:20:16.554Z,34.63
2019-04-04T17:22:48.258Z,35.23
2019-04-04T17:25:19.908Z,35.85
2019-04-04T17:27:52.151Z,35.80
2019-04-04T17:30:23.410Z,34.80
2019-04-04T17:32:55.775Z,36.15
2019-04-04T17:35:27.427Z,39.48
2019-04-04T17:37:58.771Z,35.45
2019-04-04T17:40:30.200Z,35.43
2019-04-04T17:43:01.504Z,35.03
2019-04-04T17:45:32.858Z,33.63
2019-04-04T17:48:05.083Z,36.47
2019-04-04T17:50:36.789Z,35.93
2019-04-04T17:53:08.726Z,34.90
2019-04-04T17:55:40.421Z,36.50
2019-04-04T17:58:12.779Z,35.03
2019-04-04T18:00:44.190Z,36.37
2019-04-04T18:03:16.449Z,36.50
2019-04-04T18:05:47.874Z,40.17
2019-04-04T18:08:19.283Z,53.73
2019-04-04T18:10:50.544Z,45.30
2019-04-04T18:13:21.884Z,39.67
2019-04-04T18:15:55.015Z,37.20
2019-04-04T18:18:26.343Z,40.98
2019-04-04T18:20:58.050Z,41.03
2019-04-04T18:23:29.781Z,46.80
2019-04-04T18:26:01.566Z,39.10
2019-04-04T18:28:33.233Z,39.30
2019-04-04T18:31:05.014Z,37.38
2019-04-04T18:33:36.696Z,37.10
2019-04-04T18:36:08.286Z,37.43
2019-04-04T18:38:40.214Z,37.93
2019-04-04T18:41:11.535Z,36.27
2019-04-04T18:43:42.901Z,36.60
2019-04-04T18:46:14.186Z,37.57
2019-04-04T18:48:46.093Z,37.10
2019-04-04T18:51:17.573Z,34.37
2019-04-04T18:53:49.294Z,38.73
2019-04-04T18:56:21.080Z,36.33
2019-04-04T18:58:52.450Z,36.28
2019-04-04T19:01:23.805Z,38.10
2019-04-04T19:03:55.982Z,35.78
2019-04-04T19:06:27.721Z,35.77
2019-04-04T19:09:00.428Z,35.47
2019-04-04T19:11:31.816Z,37.17
2019-04-04T19:14:03.164Z,35.73
2019-04-04T19:16:35.271Z,34.90
2019-04-04T19:19:06.679Z,36.25
2019-04-04T19:21:38.028Z,35.73
2019-04-04T19:24:09.398Z,37.30
2019-04-04T19:26:40.829Z,36.60
2019-04-04T19:29:12.537Z,37.03
2019-04-04T19:31:46.201Z,37.97
2019-04-04T19:34:17.754Z,37.17
2019-04-04T19:36:49.059Z,37.07
2019-04-04T19:39:20.799Z,35.97
2019-04-04T19:41:52.901Z,38.05
2019-04-04T19:44:24.480Z,37.10
2019-04-04T19:46:55.856Z,37.40
2019-04-04T19:49:27.806Z,37.00
2019-04-04T19:51:59.497Z,38.03
2019-04-04T19:54:31.242Z,37.23
2019-04-04T19:57:02.610Z,38.20
2019-04-04T19:59:33.921Z,37.67
2019-04-04T20:02:05.234Z,39.30
2019-04-04T20:04:36.522Z,41.53
2019-04-04T20:07:08.213Z,38.57
2019-04-04T20:09:39.513Z,38.33
2019-04-04T20:12:14.631Z,38.33
2019-04-04T20:14:45.951Z,38.20
2019-04-04T20:17:17.250Z,36.73
2019-04-04T20:19:48.644Z,37.57
2019-04-04T20:22:19.989Z,37.87
2019-04-04T20:24:51.329Z,37.23
2019-04-04T20:27:22.769Z,40.93
2019-04-04T20:29:54.880Z,42.20
2019-04-04T20:32:26.343Z,40.40
2019-04-04T20:34:57.692Z,42.47
2019-04-04T20:37:29.022Z,41.63
2019-04-04T20:40:09.744Z,42.07
2019-04-04T20:42:41.469Z,42.97
2019-04-04T20:45:13.104Z,43.37
2019-04-04T20:47:44.408Z,41.67
2019-04-04T20:50:15.913Z,42.50
2019-04-04T20:52:48.180Z,43.33
2019-04-04T20:55:19.506Z,41.53
2019-04-04T20:57:51.226Z,41.43
2019-04-04T21:00:23.508Z,43.83
2019-04-04T21:02:55.717Z,44.33
2019-04-04T21:05:27.212Z,42.23
2019-04-04T21:07:59.008Z,41.77
2019-04-04T21:10:30.361Z,43.50
2019-04-04T21:13:01.888Z,42.93
2019-04-04T21:15:37.032Z,42.77
2019-04-04T21:18:08.493Z,41.97
2019-04-04T21:20:40.291Z,45.27
2019-04-04T21:23:11.597Z,42.70
2019-04-04T21:25:43.247Z,42.80
2019-04-04T21:28:15.567Z,40.87
2019-04-04T21:30:47.471Z,42.13
2019-04-04T21:33:19.842Z,42.70
2019-04-04T21:35:51.222Z,41.27
2019-04-04T21:38:22.696Z,42.37
2019-04-04T21:40:54.429Z,41.73
2019-04-04T21:43:26.993Z,40.88
2019-04-04T21:45:59.163Z,39.83
2019-04-04T21:48:30.941Z,40.17
2019-04-04T21:51:02.266Z,39.47
2019-04-04T21:53:33.933Z,41.27
2019-04-04T21:56:05.335Z,41.43
2019-04-04T21:58:37.586Z,39.03
2019-04-04T22:01:09.245Z,39.27
2019-04-04T22:03:40.982Z,39.23
2019-04-04T22:06:12.713Z,38.10
2019-04-04T22:08:46.998Z,39.30
2019-04-04T22:11:18.815Z,40.10
2019-04-04T22:13:50.176Z,38.73
2019-04-04T22:16:21.914Z,39.87
2019-04-04T22:18:53.299Z,38.53
2019-04-04T22:21:25.212Z,38.30
2019-04-04T22:23:56.881Z,38.33
2019-04-04T22:26:29.610Z,38.20
2019-04-04T22:29:01.013Z,36.67
2019-04-04T22:31:32.314Z,38.17
2019-04-04T22:34:03.626Z,36.30
2019-04-04T22:36:34.987Z,37.57
2019-04-04T22:39:08.712Z,35.63
2019-04-04T22:41:40.027Z,35.65
2019-04-04T22:44:11.451Z,36.13
2019-04-04T22:46:42.744Z,36.27
2019-04-04T22:49:14.404Z,34.67
2019-04-04T22:51:45.761Z,35.97
2019-04-04T22:54:17.828Z,36.30
2019-04-04T22:56:49.489Z,37.20
2019-04-04T22:59:21.291Z,36.37
2019-04-04T23:01:52.608Z,34.53
2019-04-04T23:04:23.942Z,33.80
2019-04-04T23:06:55.620Z,35.43
2019-04-04T23:09:27.289Z,34.37
2019-04-04T23:11:58.643Z,34.67
2019-04-04T23:14:30.469Z,35.03
2019-04-04T23:17:02.062Z,33.65
2019-04-04T23:19:33.329Z,32.40
2019-04-04T23:22:04.670Z,32.37
2019-04-04T23:24:36.379Z,31.07
2019-04-04T23:27:07.645Z,29.63
2019-04-04T23:29:38.993Z,29.03
2019-04-04T23:32:10.703Z,29.40
2019-04-04T23:34:42.058Z,28.36
2019-04-04T23:37:13.414Z,28.37
2019-04-04T23:39:45.463Z,27.20
2019-04-04T23:42:16.866Z,27.50
2019-04-04T23:45:00.179Z,27.20
2019-04-04T23:47:21.676Z,27.93
2019-04-04T23:49:52.979Z,27.83
2019-04-04T23:52:24.910Z,27.10
2019-04-04T23:54:56.536Z,29.37
2019-04-04T23:57:28.284Z,28.97
